Terminal Aerodrome Forecast
Issued by NWS Cleveland, OH

Home | Current Version | Previous Version | Graphics & Text | Print | Product List | Glossary Off
Versions: 1 2 3 4 5 6 7 8 9 10 11 12 13 14 15 16 17 18

471
FTUS41 KCLE 250532
TAFERI
TAF
KERI 250532Z 2506/2606 26005KT P6SM BKN250
     FM251100 22010KT P6SM VCTS BKN045CB OVC120
      TEMPO 2511/2513 28012KT 4SM -TSRA BKN035CB
     FM251600 25010G18KT P6SM SCT040 BKN150
     FM260000 22004KT P6SM SKC=

USA.gov is the U.S. government's official web portal to all federal, state and local government web resources and services.